createdAt,value
2023-04-23T00:00:25.581Z,8.45
2023-04-23T00:02:54.285Z,9.43
2023-04-23T00:05:23.283Z,10.13
2023-04-23T00:07:50.211Z,8.15
2023-04-23T00:10:17.673Z,11.00
2023-04-23T00:12:44.738Z,9.00
2023-04-23T00:15:13.262Z,8.60
2023-04-23T00:17:40.162Z,8.98
2023-04-23T00:20:07.952Z,8.15
2023-04-23T00:22:34.721Z,9.82
2023-04-23T00:25:01.588Z,9.48
2023-04-23T00:27:28.387Z,9.25
2023-04-23T00:29:55.350Z,10.75
2023-04-23T00:32:22.807Z,9.07
2023-04-23T00:34:49.716Z,12.13
2023-04-23T00:37:16.579Z,9.15
2023-04-23T00:39:44.029Z,9.93
2023-04-23T00:42:12.559Z,8.65
2023-04-23T00:44:41.643Z,9.07
2023-04-23T00:47:09.060Z,9.43
2023-04-23T00:49:36.987Z,10.13
2023-04-23T00:52:04.221Z,8.80
2023-04-23T00:54:31.448Z,9.73
2023-04-23T00:56:59.468Z,8.00
2023-04-23T00:59:27.999Z,9.57
2023-04-23T01:01:55.687Z,9.38
2023-04-23T01:04:24.582Z,11.55
2023-04-23T01:06:53.425Z,9.13
2023-04-23T01:09:21.126Z,8.88
2023-04-23T01:11:50.899Z,9.80
2023-04-23T01:14:17.921Z,11.47
2023-04-23T01:16:44.797Z,9.05
2023-04-23T01:19:12.408Z,8.82
2023-04-23T01:21:42.815Z,9.40
2023-04-23T01:24:11.524Z,11.88
2023-04-23T01:26:39.710Z,11.90
2023-04-23T01:29:07.455Z,10.23
2023-04-23T01:31:34.627Z,9.73
2023-04-23T01:34:02.527Z,9.93
2023-04-23T01:36:31.168Z,9.82
2023-04-23T01:38:58.400Z,9.27
2023-04-23T01:41:25.596Z,8.32
2023-04-23T01:43:53.500Z,11.18
2023-04-23T01:46:21.394Z,9.90
2023-04-23T01:48:48.456Z,9.48
2023-04-23T01:51:15.298Z,14.30
2023-04-23T01:53:42.155Z,10.43
2023-04-23T01:56:10.440Z,10.63
2023-04-23T01:58:37.906Z,11.13
2023-04-23T02:01:04.884Z,10.63
2023-04-23T02:03:34.005Z,11.75
2023-04-23T02:06:01.324Z,9.65
2023-04-23T02:08:28.666Z,8.93
2023-04-23T02:10:55.491Z,11.10
2023-04-23T02:13:22.379Z,10.90
2023-04-23T02:15:49.596Z,10.40
2023-04-23T02:18:16.901Z,12.73
2023-04-23T02:20:43.970Z,12.15
2023-04-23T02:23:10.884Z,12.88
2023-04-23T02:25:39.294Z,12.93
2023-04-23T02:28:07.716Z,11.63
2023-04-23T02:30:35.579Z,10.27
2023-04-23T02:33:03.714Z,12.45
2023-04-23T02:35:31.382Z,12.80
2023-04-23T02:37:58.464Z,10.85
2023-04-23T02:40:25.327Z,13.77
2023-04-23T02:42:52.224Z,16.35
2023-04-23T02:45:19.221Z,12.85
2023-04-23T02:47:46.091Z,12.45
2023-04-23T02:50:13.029Z,10.60
2023-04-23T02:52:39.946Z,11.60
2023-04-23T02:55:07.662Z,17.48
2023-04-23T02:57:34.635Z,13.32
2023-04-23T03:00:01.478Z,19.15
2023-04-23T03:02:35.527Z,14.50
2023-04-23T03:05:03.170Z,15.50
2023-04-23T03:07:30.300Z,12.95
2023-04-23T03:09:58.015Z,17.95
2023-04-23T03:12:25.268Z,13.52
2023-04-23T03:14:52.472Z,16.25
2023-04-23T03:17:19.943Z,15.07
2023-04-23T03:19:47.220Z,11.13
2023-04-23T03:22:14.365Z,11.43
2023-04-23T03:24:42.161Z,10.45
2023-04-23T03:27:09.313Z,10.52
2023-04-23T03:29:36.240Z,12.38
2023-04-23T03:32:03.986Z,14.75
2023-04-23T03:34:31.627Z,10.57
2023-04-23T03:36:58.667Z,10.35
2023-04-23T03:39:25.740Z,9.80
2023-04-23T03:41:54.649Z,9.15
2023-04-23T03:46:52.471Z,9.32
2023-04-23T03:49:20.651Z,11.77
2023-04-23T03:51:47.648Z,11.18
2023-04-23T03:54:15.714Z,11.07
2023-04-23T03:56:54.637Z,11.13
2023-04-23T03:59:28.089Z,11.98
2023-04-23T04:01:58.573Z,11.13
2023-04-23T04:04:26.624Z,16.65
2023-04-23T04:06:55.231Z,13.82
2023-04-23T04:09:27.233Z,14.23
2023-04-23T04:11:54.269Z,12.10
2023-04-23T04:14:22.573Z,13.85
2023-04-23T04:16:49.638Z,11.20
2023-04-23T04:19:16.404Z,13.48
2023-04-23T04:21:43.313Z,10.82
2023-04-23T04:24:11.352Z,12.05
2023-04-23T04:26:38.292Z,11.05
2023-04-23T04:29:05.151Z,11.43
2023-04-23T04:31:32.553Z,11.20
2023-04-23T04:33:59.313Z,12.00
2023-04-23T04:36:27.136Z,13.05
2023-04-23T04:38:56.110Z,13.55
2023-04-23T04:41:25.372Z,18.52
2023-04-23T04:43:52.735Z,19.48
2023-04-23T04:46:22.682Z,17.75
2023-04-23T04:48:49.786Z,15.43
2023-04-23T04:51:16.748Z,19.67
2023-04-23T04:53:43.681Z,14.93
2023-04-23T04:56:10.509Z,13.40
2023-04-23T04:58:37.313Z,15.90
2023-04-23T05:01:05.560Z,15.55
2023-04-23T05:03:32.835Z,19.23
2023-04-23T05:05:59.743Z,23.50
2023-04-23T05:08:26.636Z,21.08
2023-04-23T05:10:56.511Z,19.08
2023-04-23T05:13:23.356Z,23.95
2023-04-23T05:15:50.423Z,17.77
2023-04-23T05:18:17.177Z,21.92
2023-04-23T05:20:44.066Z,24.48
2023-04-23T05:23:11.343Z,27.17
2023-04-23T05:25:38.195Z,28.67
2023-04-23T05:28:05.078Z,21.55
2023-04-23T05:30:31.934Z,23.67
2023-04-23T05:32:58.903Z,29.70
2023-04-23T05:35:25.897Z,26.10
2023-04-23T05:37:52.800Z,31.13
2023-04-23T05:40:19.716Z,26.10
2023-04-23T05:42:46.720Z,25.48
2023-04-23T05:45:13.537Z,23.13
2023-04-23T05:47:40.387Z,30.80
2023-04-23T05:50:07.793Z,22.52
2023-04-23T05:52:37.208Z,21.10
2023-04-23T05:55:04.405Z,21.23
2023-04-23T05:57:31.249Z,25.75
2023-04-23T05:59:58.072Z,23.63
2023-04-23T06:02:25.382Z,20.25
2023-04-23T06:04:52.848Z,21.13
2023-04-23T06:07:20.132Z,23.27
2023-04-23T06:09:46.868Z,15.43
2023-04-23T06:12:13.720Z,15.07
2023-04-23T06:14:41.039Z,17.23
2023-04-23T06:17:07.992Z,17.63
2023-04-23T06:19:34.757Z,15.85
2023-04-23T06:22:02.053Z,15.48
2023-04-23T06:24:28.838Z,20.33
2023-04-23T06:26:56.154Z,19.27
2023-04-23T06:29:24.702Z,18.13
2023-04-23T06:32:02.720Z,20.75
2023-04-23T06:36:56.371Z,13.70
2023-04-23T06:39:23.227Z,15.77
2023-04-23T06:41:50.603Z,13.77
2023-04-23T06:44:23.594Z,16.60
2023-04-23T06:46:53.214Z,20.52
2023-04-23T06:49:20.279Z,17.88
2023-04-23T06:51:48.215Z,21.88
2023-04-23T06:54:15.614Z,19.05
2023-04-23T06:56:42.641Z,16.33
2023-04-23T06:59:09.442Z,14.27
2023-04-23T07:01:44.677Z,15.52
2023-04-23T07:04:11.548Z,18.33
2023-04-23T07:06:38.359Z,16.80
2023-04-23T07:09:05.941Z,14.98
2023-04-23T07:11:34.779Z,14.65
2023-04-23T07:14:01.890Z,20.42
2023-04-23T07:16:32.200Z,15.95
2023-04-23T07:19:01.204Z,13.68
2023-04-23T07:21:30.748Z,15.88
2023-04-23T07:23:59.907Z,10.88
2023-04-23T07:26:27.787Z,13.23
2023-04-23T07:28:54.655Z,11.25
2023-04-23T07:31:22.254Z,11.70
2023-04-23T07:33:49.722Z,12.30
2023-04-23T07:36:16.541Z,10.60
2023-04-23T07:38:43.396Z,12.00
2023-04-23T07:41:10.244Z,12.05
2023-04-23T07:43:37.156Z,12.48
2023-04-23T07:46:04.987Z,10.10
2023-04-23T07:48:31.821Z,11.07
2023-04-23T07:50:58.634Z,11.52
2023-04-23T07:53:25.547Z,12.43
2023-04-23T07:55:52.562Z,10.90
2023-04-23T07:58:19.392Z,11.60
2023-04-23T08:00:46.385Z,8.68
2023-04-23T08:03:13.479Z,8.40
2023-04-23T08:05:41.297Z,11.52
2023-04-23T08:08:09.122Z,8.70
2023-04-23T08:10:35.968Z,10.18
2023-04-23T08:13:03.121Z,12.27
2023-04-23T08:15:30.326Z,19.08
2023-04-23T08:17:57.133Z,11.15
2023-04-23T08:20:24.025Z,15.77
2023-04-23T08:22:53.082Z,10.75
2023-04-23T08:25:21.061Z,10.23
2023-04-23T08:27:48.022Z,13.93
2023-04-23T08:30:15.611Z,7.70
2023-04-23T08:32:42.522Z,12.25
2023-04-23T08:35:09.522Z,9.38
2023-04-23T08:37:36.724Z,10.85
2023-04-23T08:40:05.073Z,21.45
2023-04-23T08:42:41.711Z,11.23
2023-04-23T08:45:09.232Z,11.73
2023-04-23T08:47:37.147Z,8.85
2023-04-23T08:50:04.842Z,10.32
2023-04-23T08:52:35.809Z,9.30
2023-04-23T08:55:07.291Z,13.43
2023-04-23T08:57:34.367Z,15.18
2023-04-23T09:00:06.001Z,10.20
2023-04-23T09:02:34.984Z,10.65
2023-04-23T09:05:06.171Z,13.80
2023-04-23T09:07:34.637Z,13.13
2023-04-23T09:10:02.852Z,13.68
2023-04-23T09:12:30.432Z,11.40
2023-04-23T09:14:57.369Z,10.35
2023-04-23T09:17:28.027Z,15.63
2023-04-23T09:19:55.457Z,9.95
2023-04-23T09:22:43.194Z,14.77
2023-04-23T09:25:13.958Z,10.40
2023-04-23T09:27:41.140Z,13.52
2023-04-23T09:30:10.804Z,13.18
2023-04-23T09:32:42.613Z,20.63
2023-04-23T09:35:12.294Z,19.55
2023-04-23T09:37:42.370Z,12.15
2023-04-23T09:40:10.551Z,13.20
2023-04-23T09:42:37.840Z,13.15
2023-04-23T09:45:07.559Z,12.93
2023-04-23T09:47:55.589Z,13.63
2023-04-23T09:50:36.917Z,12.43
2023-04-23T09:53:10.716Z,10.77
2023-04-23T09:55:39.728Z,11.98
2023-04-23T09:58:11.535Z,13.25
2023-04-23T10:00:40.065Z,13.50
2023-04-23T10:03:08.806Z,13.02
2023-04-23T10:08:14.484Z,10.82
2023-04-23T10:10:54.980Z,12.40
2023-04-23T10:13:28.741Z,10.60
2023-04-23T10:15:59.015Z,12.30
2023-04-23T10:18:33.298Z,10.40
2023-04-23T10:21:02.669Z,11.07
2023-04-23T10:23:30.893Z,11.63
2023-04-23T10:26:00.931Z,11.35
2023-04-23T10:28:31.976Z,13.40
2023-04-23T10:31:00.879Z,10.18
2023-04-23T10:33:37.462Z,13.00
2023-04-23T10:36:09.985Z,13.68
2023-04-23T10:38:42.957Z,9.00
2023-04-23T10:41:24.553Z,10.27
2023-04-23T10:43:53.688Z,11.27
2023-04-23T10:46:36.468Z,12.35
2023-04-23T10:49:16.474Z,12.75
2023-04-23T10:54:19.915Z,8.63
2023-04-23T10:56:57.683Z,9.45
2023-04-23T10:59:24.979Z,10.38
2023-04-23T11:01:52.577Z,10.60
2023-04-23T11:04:31.684Z,17.27
2023-04-23T11:07:05.848Z,9.07
2023-04-23T11:09:48.797Z,9.25
2023-04-23T11:12:25.163Z,21.55
2023-04-23T11:14:54.700Z,14.95
2023-04-23T11:17:44.538Z,9.57
2023-04-23T11:20:18.889Z,8.52
2023-04-23T11:22:46.884Z,10.82
2023-04-23T11:25:27.907Z,8.45
2023-04-23T11:27:56.691Z,10.98
2023-04-23T11:30:29.462Z,14.38
2023-04-23T11:32:59.845Z,9.00
2023-04-23T11:35:33.479Z,9.35
2023-04-23T11:38:00.451Z,9.38
2023-04-23T11:40:29.742Z,12.48
2023-04-23T11:42:57.771Z,12.00
2023-04-23T11:45:29.346Z,12.57
2023-04-23T11:47:58.400Z,7.60
2023-04-23T11:50:32.742Z,9.57
2023-04-23T11:53:10.047Z,9.85
2023-04-23T11:55:38.130Z,8.95
2023-04-23T11:58:04.952Z,9.35
2023-04-23T12:00:31.816Z,9.88
2023-04-23T12:03:06.273Z,11.63
2023-04-23T12:05:37.455Z,9.73
2023-04-23T12:08:21.156Z,10.10
2023-04-23T12:10:51.129Z,9.05
2023-04-23T12:13:20.927Z,15.73
2023-04-23T12:15:53.305Z,10.88
2023-04-23T12:18:20.322Z,10.38
2023-04-23T12:20:47.137Z,9.57
2023-04-23T12:23:14.107Z,9.00
2023-04-23T12:25:42.293Z,9.75
2023-04-23T12:28:09.306Z,10.18
2023-04-23T12:30:43.870Z,10.75
2023-04-23T12:33:11.945Z,9.93
2023-04-23T12:35:43.769Z,12.38
2023-04-23T12:38:27.430Z,11.82
2023-04-23T12:40:55.772Z,17.25
2023-04-23T12:43:23.261Z,11.60
2023-04-23T12:45:50.310Z,11.13
2023-04-23T12:48:17.190Z,11.43
2023-04-23T12:50:46.533Z,10.85
2023-04-23T12:53:13.590Z,9.85
2023-04-23T12:55:43.058Z,11.98
2023-04-23T12:58:10.344Z,11.80
2023-04-23T13:00:37.232Z,8.77
2023-04-23T13:03:04.688Z,12.45
2023-04-23T13:05:31.584Z,13.30
2023-04-23T13:07:58.361Z,16.33
2023-04-23T13:10:25.921Z,12.82
2023-04-23T13:12:52.674Z,10.85
2023-04-23T13:15:20.304Z,10.18
2023-04-23T13:17:47.319Z,9.35
2023-04-23T13:20:14.250Z,9.80
2023-04-23T13:22:41.092Z,9.68
2023-04-23T13:25:08.694Z,11.65
2023-04-23T13:27:35.495Z,14.93
2023-04-23T13:30:02.428Z,13.55
2023-04-23T13:32:32.330Z,11.20
2023-04-23T13:35:02.798Z,8.93
2023-04-23T13:37:31.408Z,8.88
2023-04-23T13:39:58.334Z,8.25
2023-04-23T13:42:25.158Z,8.48
2023-04-23T13:44:52.448Z,13.20
2023-04-23T13:47:19.354Z,10.32
2023-04-23T13:49:46.119Z,7.78
2023-04-23T13:52:12.938Z,11.93
2023-04-23T13:54:40.230Z,9.02
2023-04-23T13:57:07.239Z,8.77
2023-04-23T13:59:34.175Z,10.70
2023-04-23T14:02:01.219Z,11.85
2023-04-23T14:04:28.159Z,11.80
2023-04-23T14:06:55.216Z,9.05
2023-04-23T14:09:25.215Z,8.57
2023-04-23T14:11:52.177Z,6.77
2023-04-23T14:14:19.141Z,10.23
2023-04-23T14:16:45.986Z,7.82
2023-04-23T14:19:12.806Z,9.13
2023-04-23T14:21:40.513Z,9.13
2023-04-23T14:24:27.389Z,10.73
2023-04-23T14:26:54.341Z,8.05
2023-04-23T14:29:50.979Z,8.00
2023-04-23T14:32:18.007Z,8.00
2023-04-23T14:34:45.134Z,8.30
2023-04-23T14:37:12.425Z,7.57
2023-04-23T14:39:41.221Z,8.02
2023-04-23T14:42:08.503Z,7.13
2023-04-23T14:44:35.676Z,11.60
2023-04-23T14:47:02.590Z,10.18
2023-04-23T14:49:29.411Z,7.88
2023-04-23T14:51:57.983Z,7.97
2023-04-23T14:54:24.931Z,10.20
2023-04-23T14:56:52.119Z,10.38
2023-04-23T14:59:19.222Z,7.22
2023-04-23T15:01:46.168Z,7.75
2023-04-23T15:04:13.281Z,10.20
2023-04-23T15:06:43.277Z,8.18
2023-04-23T15:09:10.085Z,8.23
2023-04-23T15:11:38.789Z,6.75
2023-04-23T15:14:18.467Z,7.93
2023-04-23T15:16:49.368Z,7.70
2023-04-23T15:19:18.098Z,7.72
2023-04-23T15:21:46.054Z,10.50
2023-04-23T15:24:13.263Z,14.02
2023-04-23T15:26:40.819Z,11.10
2023-04-23T15:29:10.712Z,10.40
2023-04-23T15:31:38.239Z,8.43
2023-04-23T15:34:07.270Z,9.70
2023-04-23T15:36:35.587Z,8.68
2023-04-23T15:39:02.393Z,6.82
2023-04-23T15:41:29.209Z,7.82
2023-04-23T15:43:56.577Z,7.82
2023-04-23T15:46:23.386Z,11.20
2023-04-23T15:48:50.214Z,6.32
2023-04-23T15:51:17.736Z,7.63
2023-04-23T15:53:44.540Z,13.52
2023-04-23T15:56:11.465Z,10.25
2023-04-23T15:58:38.291Z,12.80
2023-04-23T16:01:07.101Z,8.98
2023-04-23T16:03:34.408Z,7.65
2023-04-23T16:06:01.992Z,7.90
2023-04-23T16:08:28.858Z,7.78
2023-04-23T16:10:57.020Z,9.10
2023-04-23T16:13:25.231Z,11.48
2023-04-23T16:15:52.418Z,9.30
2023-04-23T16:18:19.282Z,7.82
2023-04-23T16:20:46.374Z,7.03
2023-04-23T16:23:13.237Z,7.15
2023-04-23T16:25:40.279Z,8.40
2023-04-23T16:28:07.303Z,7.93
2023-04-23T16:30:34.307Z,7.53
2023-04-23T16:33:01.394Z,9.18
2023-04-23T16:35:28.285Z,7.28
2023-04-23T16:37:55.083Z,9.35
2023-04-23T16:40:21.997Z,8.25
2023-04-23T16:42:49.037Z,8.60
2023-04-23T16:45:16.229Z,10.20
2023-04-23T16:47:44.252Z,7.45
2023-04-23T16:50:11.464Z,8.73
2023-04-23T16:52:38.313Z,9.02
2023-04-23T16:55:05.749Z,7.72
2023-04-23T16:57:33.329Z,8.77
2023-04-23T17:00:00.291Z,11.35
2023-04-23T17:02:27.357Z,12.93
2023-04-23T17:04:55.123Z,9.43
2023-04-23T17:07:22.118Z,12.02
2023-04-23T17:09:49.387Z,17.23
2023-04-23T17:12:16.605Z,16.48
2023-04-23T17:14:43.782Z,12.50
2023-04-23T17:17:10.687Z,9.88
2023-04-23T17:19:37.485Z,7.70
2023-04-23T17:22:06.223Z,6.85
2023-04-23T17:24:33.196Z,7.78
2023-04-23T17:27:01.025Z,10.85
2023-04-23T17:29:27.796Z,10.65
2023-04-23T17:31:55.067Z,9.77
2023-04-23T17:34:21.904Z,8.18
2023-04-23T17:36:48.797Z,8.20
2023-04-23T17:39:19.806Z,8.43
2023-04-23T17:41:46.754Z,8.35
2023-04-23T17:44:13.602Z,8.88
2023-04-23T17:46:40.445Z,11.23
2023-04-23T17:49:07.994Z,16.38
2023-04-23T17:51:34.818Z,17.63
2023-04-23T17:54:02.340Z,11.75
2023-04-23T17:56:29.486Z,15.05
2023-04-23T17:58:56.216Z,11.57
2023-04-23T18:01:23.333Z,14.70
2023-04-23T18:03:51.641Z,15.70
2023-04-23T18:06:18.729Z,9.10
2023-04-23T18:08:45.516Z,7.72
2023-04-23T18:11:12.392Z,6.97
2023-04-23T18:13:39.259Z,7.85
2023-04-23T18:16:06.262Z,8.27
2023-04-23T18:18:33.168Z,29.80
2023-04-23T18:21:02.783Z,46.45
2023-04-23T18:23:31.142Z,28.23
2023-04-23T18:26:01.650Z,10.40
2023-04-23T18:28:29.112Z,8.95
2023-04-23T18:31:02.670Z,11.70
2023-04-23T18:33:42.229Z,12.50
2023-04-23T18:36:30.111Z,10.20
2023-04-23T18:38:57.304Z,10.57
2023-04-23T18:41:24.433Z,10.30
2023-04-23T18:43:51.639Z,10.57
2023-04-23T18:46:18.514Z,17.77
2023-04-23T18:48:52.501Z,18.17
2023-04-23T18:51:43.957Z,13.73
2023-04-23T18:54:15.146Z,8.75
2023-04-23T18:56:42.408Z,12.88
2023-04-23T18:59:09.939Z,13.20
2023-04-23T19:01:37.427Z,11.40
2023-04-23T19:04:04.373Z,9.30
2023-04-23T19:06:32.288Z,15.48
2023-04-23T19:08:59.991Z,8.35
2023-04-23T19:11:30.370Z,13.35
2023-04-23T19:13:57.208Z,10.00
2023-04-23T19:16:24.127Z,18.58
2023-04-23T19:18:51.130Z,11.77
2023-04-23T19:21:17.978Z,12.30
2023-04-23T19:23:45.316Z,13.23
2023-04-23T19:26:12.139Z,12.93
2023-04-23T19:28:39.276Z,13.05
2023-04-23T19:31:06.414Z,11.40
2023-04-23T19:33:33.221Z,13.20
2023-04-23T19:35:59.966Z,11.90
2023-04-23T19:38:27.045Z,10.95
2023-04-23T19:40:53.872Z,22.00
2023-04-23T19:43:20.824Z,11.60
2023-04-23T19:45:47.693Z,8.93
2023-04-23T19:48:14.597Z,12.45
2023-04-23T19:50:41.416Z,8.23
2023-04-23T19:53:08.297Z,7.80
2023-04-23T19:55:35.168Z,8.23
2023-04-23T19:58:06.162Z,8.82
2023-04-23T20:00:37.450Z,8.13
2023-04-23T20:03:05.645Z,8.07
2023-04-23T20:05:32.572Z,9.32
2023-04-23T20:08:01.120Z,10.77
2023-04-23T20:10:30.520Z,10.05
2023-04-23T20:12:59.534Z,12.57
2023-04-23T20:15:26.597Z,7.90
2023-04-23T20:17:53.745Z,7.70
2023-04-23T20:20:21.639Z,8.45
2023-04-23T20:22:48.833Z,7.70
2023-04-23T20:25:15.757Z,8.48
2023-04-23T20:27:42.658Z,8.27
2023-04-23T20:30:11.497Z,8.60
2023-04-23T20:32:38.593Z,7.63
2023-04-23T20:35:05.943Z,8.80
2023-04-23T20:37:34.905Z,9.98
2023-04-23T20:40:01.722Z,7.40
2023-04-23T20:42:29.109Z,7.22
2023-04-23T20:44:56.150Z,8.73
2023-04-23T20:47:23.237Z,6.82
2023-04-23T20:49:49.988Z,10.65
2023-04-23T20:52:16.944Z,6.32
2023-04-23T20:54:45.273Z,6.78
2023-04-23T20:57:12.123Z,6.50
2023-04-23T20:59:38.946Z,5.85
2023-04-23T21:02:07.185Z,7.40
2023-04-23T21:04:34.048Z,5.57
2023-04-23T21:07:01.371Z,6.10
2023-04-23T21:09:28.156Z,5.50
2023-04-23T21:11:56.803Z,6.55
2023-04-23T21:14:23.673Z,5.75
2023-04-23T21:16:50.568Z,7.82
2023-04-23T21:19:17.337Z,5.40
2023-04-23T21:21:44.208Z,5.45
2023-04-23T21:24:11.109Z,6.45
2023-04-23T21:26:38.019Z,5.35
2023-04-23T21:29:04.775Z,5.85
2023-04-23T21:31:48.376Z,5.07
2023-04-23T21:34:15.809Z,5.43
2023-04-23T21:36:44.597Z,5.47
2023-04-23T21:39:13.134Z,5.05
2023-04-23T21:41:40.434Z,4.32
2023-04-23T21:44:08.260Z,4.78
2023-04-23T21:46:35.159Z,5.10
2023-04-23T21:49:02.469Z,6.50
2023-04-23T21:51:29.928Z,6.70
2023-04-23T21:53:57.016Z,6.57
2023-04-23T21:56:23.924Z,5.07
2023-04-23T21:58:50.813Z,5.22
2023-04-23T22:01:18.234Z,4.45
2023-04-23T22:03:46.802Z,3.58
2023-04-23T22:06:15.795Z,4.85
2023-04-23T22:08:44.556Z,8.18
2023-04-23T22:11:11.638Z,5.57
2023-04-23T22:13:38.660Z,6.78
2023-04-23T22:16:13.376Z,5.03
2023-04-23T22:18:40.632Z,6.35
2023-04-23T22:21:07.660Z,5.28
2023-04-23T22:23:34.450Z,4.53
2023-04-23T22:26:01.279Z,4.20
2023-04-23T22:28:28.175Z,6.38
2023-04-23T22:30:54.984Z,4.35
2023-04-23T22:33:21.897Z,4.90
2023-04-23T22:35:48.669Z,4.55
2023-04-23T22:38:15.773Z,4.85
2023-04-23T22:40:42.723Z,4.93
2023-04-23T22:43:09.594Z,4.47
2023-04-23T22:45:36.637Z,4.32
2023-04-23T22:48:04.235Z,5.82
2023-04-23T22:50:31.132Z,4.43
2023-04-23T22:52:58.010Z,7.70
2023-04-23T22:55:24.859Z,4.78
2023-04-23T22:57:51.898Z,6.10
2023-04-23T23:00:18.785Z,5.18
2023-04-23T23:02:45.809Z,4.45
2023-04-23T23:05:12.807Z,5.72
2023-04-23T23:07:39.771Z,6.50
2023-04-23T23:10:08.801Z,6.30
2023-04-23T23:12:39.206Z,7.15
2023-04-23T23:15:07.627Z,7.15
2023-04-23T23:17:34.486Z,4.90
2023-04-23T23:20:01.297Z,4.68
2023-04-23T23:22:28.200Z,5.28
2023-04-23T23:24:55.107Z,4.43
2023-04-23T23:27:21.862Z,5.75
2023-04-23T23:29:48.693Z,5.13
2023-04-23T23:32:15.729Z,6.25
2023-04-23T23:34:42.590Z,6.18
2023-04-23T23:37:09.373Z,6.07
2023-04-23T23:39:36.180Z,5.90
2023-04-23T23:42:03.056Z,6.55
2023-04-23T23:44:29.909Z,5.35
2023-04-23T23:46:57.137Z,5.15
2023-04-23T23:49:24.091Z,5.43
2023-04-23T23:51:51.268Z,6.97
2023-04-23T23:54:18.178Z,4.82
2023-04-23T23:56:44.989Z,5.07
2023-04-23T23:59:11.843Z,5.03
